Hauptseite
METAR-TAF:

METAR-TAF

Flughäfen :

Flughafen Moundou

Moundou, Tschad

Breite: 08-37N, Länge: 016-04E, Höhe: 428 m

Beobachtung

Neuester Wetterbericht von vor 13 Stunden und 52 Minuten, um 15:00 UTC
Windstille
Temperatur 31°C
Luftfeuchtigkeit 59%
Luftdruck 1009 hPa
Sichtweite 10 km oder mehr
Leicht bewölkt in der Höhe von 4000 ft

METAR: FTTD 241500Z 00000KT 9999 FEW040 31/22 Q1009

Zeit: 05:52 (04:52 UTC)


TAF: fehlend

Wetterbeobachtungen und Prognosen von mehr als 4000 Flughäfen (METAR und TAF Bericht).

Die verfügbaren Stationen werden durch gelbe und rote Markierungen auf der Karte dargestellt.

Führen Sie die Maus auf sie, um den Namen der Station zu sehen.

Darauf klicken, um die Beobachtung von Wetterbeobachtungen und Prognosen zu sehen.

Um die Karte zu ändern : klicken Sie auf den grünen Tasten mit einem schwarzen Kreuz Zum Vergrößern, auf den grünen Button mit einem Gedankenstrich zu verkleinern, oder auf die grünen Pfeile für benachbarte Karten.


METAR-TAF: